createdAt,value
2018-07-11T00:00:27.191Z,15.82
2018-07-11T00:02:03.383Z,15.87
2018-07-11T00:03:45.461Z,15.85
2018-07-11T00:05:26.843Z,15.83
2018-07-11T00:07:02.610Z,15.87
2018-07-11T00:08:38.939Z,15.90
2018-07-11T00:10:14.563Z,15.97
2018-07-11T00:11:50.244Z,16.07
2018-07-11T00:13:25.917Z,16.14
2018-07-11T00:15:01.520Z,16.19
2018-07-11T00:16:38.871Z,16.21
2018-07-11T00:18:15.164Z,16.27
2018-07-11T00:19:52.491Z,16.13
2018-07-11T00:21:28.197Z,16.10
2018-07-11T00:23:05.737Z,16.07
2018-07-11T00:24:41.401Z,16.06
2018-07-11T00:26:17.172Z,16.10
2018-07-11T00:27:52.815Z,16.09
2018-07-11T00:29:28.472Z,16.08
2018-07-11T00:31:04.369Z,16.13
2018-07-11T00:32:39.981Z,16.09
2018-07-11T00:34:15.935Z,16.20
2018-07-11T00:35:51.572Z,16.17
2018-07-11T00:37:35.841Z,16.12
2018-07-11T00:39:11.540Z,16.12
2018-07-11T00:40:47.088Z,16.14
2018-07-11T00:42:22.648Z,16.18
2018-07-11T00:43:58.549Z,16.17
2018-07-11T00:45:34.168Z,16.24
2018-07-11T00:47:10.499Z,16.22
2018-07-11T00:48:46.100Z,16.18
2018-07-11T00:50:29.018Z,16.24
2018-07-11T00:52:10.179Z,16.25
2018-07-11T00:53:46.070Z,16.30
2018-07-11T00:55:22.636Z,16.23
2018-07-11T00:56:59.517Z,16.14
2018-07-11T00:58:48.068Z,16.18
2018-07-11T01:00:24.176Z,16.19
2018-07-11T01:02:05.552Z,16.20
2018-07-11T01:03:44.333Z,16.23
2018-07-11T01:05:20.164Z,16.22
2018-07-11T01:06:55.743Z,16.26
2018-07-11T01:08:34.135Z,16.18
2018-07-11T01:10:09.720Z,16.13
2018-07-11T01:11:46.212Z,16.13
2018-07-11T01:13:21.817Z,16.19
2018-07-11T01:14:57.794Z,16.17
2018-07-11T01:16:33.397Z,16.09
2018-07-11T01:18:13.175Z,16.05
2018-07-11T01:19:49.303Z,16.04
2018-07-11T01:21:24.894Z,16.09
2018-07-11T01:23:02.771Z,16.10
2018-07-11T01:24:42.150Z,16.00
2018-07-11T01:26:18.361Z,16.04
2018-07-11T01:27:53.920Z,15.99
2018-07-11T01:29:30.038Z,16.02
2018-07-11T01:31:14.655Z,16.04
2018-07-11T01:32:50.601Z,16.03
2018-07-11T01:34:26.191Z,15.96
2018-07-11T01:36:01.769Z,16.05
2018-07-11T01:37:37.340Z,16.03
2018-07-11T01:39:12.962Z,16.09
2018-07-11T01:40:48.539Z,16.05
2018-07-11T01:42:24.165Z,16.03
2018-07-11T01:43:59.771Z,15.93
2018-07-11T01:45:35.651Z,15.98
2018-07-11T01:47:11.201Z,16.01
2018-07-11T01:48:46.904Z,15.98
2018-07-11T01:50:22.492Z,16.02
2018-07-11T01:52:09.392Z,16.11
2018-07-11T01:53:44.941Z,16.11
2018-07-11T01:55:20.551Z,16.17
2018-07-11T01:56:56.143Z,16.19
2018-07-11T01:58:31.744Z,16.15
2018-07-11T02:00:07.331Z,16.07
2018-07-11T02:01:43.380Z,15.97
2018-07-11T02:03:18.937Z,16.00
2018-07-11T02:04:54.863Z,16.03
2018-07-11T02:06:30.390Z,16.00
2018-07-11T02:08:06.280Z,16.07
2018-07-11T02:09:41.973Z,16.15
2018-07-11T02:11:17.755Z,16.16
2018-07-11T02:12:53.326Z,16.09
2018-07-11T02:14:29.445Z,16.01
2018-07-11T02:16:05.277Z,16.04
2018-07-11T02:17:41.501Z,16.04
2018-07-11T02:19:19.840Z,16.00
2018-07-11T02:20:56.160Z,16.01
2018-07-11T02:22:32.418Z,16.00
2018-07-11T02:24:08.081Z,15.99
2018-07-11T02:25:43.629Z,15.98
2018-07-11T02:27:19.221Z,15.96
2018-07-11T02:28:54.812Z,15.97
2018-07-11T02:30:30.353Z,16.00
2018-07-11T02:32:10.153Z,16.06
2018-07-11T02:33:46.599Z,16.05
2018-07-11T02:35:22.135Z,16.11
2018-07-11T02:36:57.739Z,16.05
2018-07-11T02:38:33.770Z,16.07
2018-07-11T02:40:09.340Z,16.10
2018-07-11T02:41:44.900Z,16.08
2018-07-11T02:43:20.544Z,16.08
2018-07-11T02:44:56.213Z,16.07
2018-07-11T02:46:37.009Z,16.07
2018-07-11T02:48:12.560Z,16.04
2018-07-11T02:49:48.351Z,16.06
2018-07-11T02:51:23.912Z,16.03
2018-07-11T02:52:59.938Z,16.00
2018-07-11T02:54:35.517Z,16.00
2018-07-11T02:56:11.074Z,15.99
2018-07-11T02:57:46.623Z,16.06
2018-07-11T02:59:22.190Z,16.03
2018-07-11T03:00:57.800Z,16.02
2018-07-11T03:02:33.818Z,15.92
2018-07-11T03:04:09.768Z,15.86
2018-07-11T03:05:45.517Z,15.90
2018-07-11T03:07:21.442Z,15.84
2018-07-11T03:08:57.022Z,15.79
2018-07-11T03:10:32.693Z,15.80
2018-07-11T03:12:08.284Z,15.78
2018-07-11T03:13:44.243Z,15.80
2018-07-11T03:15:19.900Z,15.87
2018-07-11T03:16:55.650Z,15.87
2018-07-11T03:18:31.629Z,15.95
2018-07-11T03:20:07.677Z,15.91
2018-07-11T03:21:43.312Z,15.90
2018-07-11T03:23:19.039Z,15.92
2018-07-11T03:24:54.698Z,15.96
2018-07-11T03:26:30.310Z,15.95
2018-07-11T03:28:06.005Z,15.94
2018-07-11T03:29:41.584Z,15.99
2018-07-11T03:31:17.189Z,16.00
2018-07-11T03:32:52.769Z,15.97
2018-07-11T03:34:28.644Z,15.99
2018-07-11T03:36:04.243Z,15.96
2018-07-11T03:37:39.805Z,15.96
2018-07-11T03:39:15.400Z,15.93
2018-07-11T03:40:51.280Z,15.90
2018-07-11T03:42:27.043Z,15.90
2018-07-11T03:44:02.654Z,15.98
2018-07-11T03:45:38.841Z,15.97
2018-07-11T03:47:14.390Z,16.04
2018-07-11T03:48:49.971Z,16.07
2018-07-11T03:50:26.774Z,16.11
2018-07-11T03:52:02.781Z,16.09
2018-07-11T03:53:39.555Z,16.15
2018-07-11T03:55:16.190Z,16.12
2018-07-11T03:56:51.737Z,16.10
2018-07-11T03:58:29.372Z,16.12
2018-07-11T04:00:04.987Z,16.12
2018-07-11T04:01:40.593Z,16.10
2018-07-11T04:03:16.635Z,16.18
2018-07-11T04:04:52.271Z,16.19
2018-07-11T04:06:27.856Z,16.21
2018-07-11T04:08:03.524Z,16.27
2018-07-11T04:09:39.631Z,16.26
2018-07-11T04:11:15.223Z,16.31
2018-07-11T04:12:56.343Z,16.40
2018-07-11T04:14:31.931Z,16.39
2018-07-11T04:16:08.557Z,16.46
2018-07-11T04:17:44.293Z,16.39
2018-07-11T04:19:19.890Z,16.40
2018-07-11T04:20:55.476Z,16.38
2018-07-11T04:22:31.075Z,16.36
2018-07-11T04:24:06.695Z,16.33
2018-07-11T04:25:42.317Z,16.41
2018-07-11T04:27:18.090Z,16.51
2018-07-11T04:28:53.731Z,16.58
2018-07-11T04:30:29.215Z,16.55
2018-07-11T04:32:04.816Z,16.55
2018-07-11T04:33:40.910Z,16.55
2018-07-11T04:35:16.549Z,16.52
2018-07-11T04:36:53.062Z,16.48
2018-07-11T04:38:28.871Z,16.51
2018-07-11T04:40:04.505Z,16.48
2018-07-11T04:41:40.138Z,16.42
2018-07-11T04:43:16.490Z,16.40
2018-07-11T04:44:52.036Z,16.39
2018-07-11T04:46:27.616Z,16.39
2018-07-11T04:48:03.946Z,16.38
2018-07-11T04:49:39.547Z,16.42
2018-07-11T04:51:15.164Z,16.44
2018-07-11T04:52:51.050Z,16.53
2018-07-11T04:54:28.208Z,16.57
2018-07-11T04:56:06.842Z,16.65
2018-07-11T04:57:42.712Z,16.65
2018-07-11T04:59:18.748Z,16.66
2018-07-11T05:00:54.450Z,16.65
2018-07-11T05:02:30.781Z,16.70
2018-07-11T05:04:07.405Z,16.75
2018-07-11T05:05:42.982Z,16.82
2018-07-11T05:07:21.168Z,16.87
2018-07-11T05:08:56.802Z,16.91
2018-07-11T05:10:32.420Z,16.94
2018-07-11T05:12:08.027Z,17.00
2018-07-11T05:13:43.688Z,16.99
2018-07-11T05:15:20.456Z,17.00
2018-07-11T05:16:56.032Z,17.06
2018-07-11T05:18:31.680Z,17.07
2018-07-11T05:20:07.307Z,17.18
2018-07-11T05:21:43.205Z,17.19
2018-07-11T05:23:18.757Z,17.25
2018-07-11T05:24:54.466Z,17.22
2018-07-11T05:26:30.313Z,17.18
2018-07-11T05:28:06.324Z,17.31
2018-07-11T05:29:41.914Z,17.46
2018-07-11T05:31:17.492Z,17.47
2018-07-11T05:32:53.092Z,17.49
2018-07-11T05:34:30.223Z,17.44
2018-07-11T05:36:05.841Z,17.56
2018-07-11T05:37:41.448Z,17.39
2018-07-11T05:39:17.034Z,17.52
2018-07-11T05:40:52.830Z,17.43
2018-07-11T05:42:28.510Z,17.36
2018-07-11T05:44:10.444Z,17.47
2018-07-11T05:45:46.013Z,17.39
2018-07-11T05:47:22.284Z,17.20
2018-07-11T05:48:59.177Z,17.40
2018-07-11T05:50:36.286Z,17.57
2018-07-11T05:52:13.125Z,17.67
2018-07-11T05:53:52.597Z,17.53
2018-07-11T05:55:28.223Z,17.59
2018-07-11T05:57:03.828Z,17.77
2018-07-11T05:58:39.365Z,17.85
2018-07-11T06:00:14.965Z,17.75
2018-07-11T06:01:50.549Z,17.69
2018-07-11T06:03:26.086Z,17.82
2018-07-11T06:05:01.687Z,17.81
2018-07-11T06:06:37.581Z,18.04
2018-07-11T06:08:13.273Z,18.06
2018-07-11T06:09:48.827Z,17.79
2018-07-11T06:11:25.488Z,17.90
2018-07-11T06:13:01.033Z,18.09
2018-07-11T06:14:38.633Z,18.25
2018-07-11T06:16:14.443Z,18.37
2018-07-11T06:17:49.996Z,18.35
2018-07-11T06:19:25.550Z,18.42
2018-07-11T06:21:01.152Z,18.52
2018-07-11T06:22:37.025Z,18.46
2018-07-11T06:24:12.883Z,18.61
2018-07-11T06:25:48.408Z,18.69
2018-07-11T06:27:24.866Z,18.69
2018-07-11T06:29:04.447Z,18.80
2018-07-11T06:30:40.303Z,18.80
2018-07-11T06:32:16.829Z,18.83
2018-07-11T06:33:55.157Z,18.90
2018-07-11T06:35:30.787Z,18.95
2018-07-11T06:37:07.578Z,19.06
2018-07-11T06:38:43.684Z,19.15
2018-07-11T06:40:23.481Z,19.34
2018-07-11T06:41:59.100Z,19.55
2018-07-11T06:43:35.622Z,19.73
2018-07-11T06:45:11.231Z,19.95
2018-07-11T06:46:47.780Z,20.12
2018-07-11T06:48:23.435Z,20.13
2018-07-11T06:50:00.333Z,20.06
2018-07-11T06:51:35.944Z,20.11
2018-07-11T06:53:11.586Z,20.22
2018-07-11T06:54:47.355Z,20.23
2018-07-11T06:56:23.166Z,20.20
2018-07-11T06:58:02.050Z,20.16
2018-07-11T06:59:38.482Z,20.01
2018-07-11T07:01:19.100Z,19.96
2018-07-11T07:02:54.903Z,19.66
2018-07-11T07:04:30.653Z,19.42
2018-07-11T07:06:06.662Z,19.84
2018-07-11T07:07:42.865Z,20.11
2018-07-11T07:09:18.896Z,20.29
2018-07-11T07:10:54.479Z,20.28
2018-07-11T07:12:30.308Z,20.33
2018-07-11T07:14:06.184Z,20.33
2018-07-11T07:15:43.322Z,20.55
2018-07-11T07:17:19.396Z,20.45
2018-07-11T07:18:55.564Z,20.23
2018-07-11T07:20:31.228Z,20.39
2018-07-11T07:22:06.850Z,20.49
2018-07-11T07:23:43.342Z,20.38
2018-07-11T07:25:18.977Z,20.15
2018-07-11T07:26:54.553Z,20.10
2018-07-11T07:28:30.927Z,20.02
2018-07-11T07:30:06.543Z,19.62
2018-07-11T07:31:43.536Z,20.02
2018-07-11T07:33:19.778Z,20.29
2018-07-11T07:34:56.050Z,20.16
2018-07-11T07:36:32.534Z,20.14
2018-07-11T07:38:09.354Z,20.20
2018-07-11T07:39:45.327Z,20.45
2018-07-11T07:41:21.714Z,20.47
2018-07-11T07:42:58.157Z,20.36
2018-07-11T07:44:34.941Z,20.27
2018-07-11T07:46:10.957Z,20.36
2018-07-11T07:47:47.993Z,20.40
2018-07-11T07:49:24.185Z,20.45
2018-07-11T07:50:59.800Z,20.67
2018-07-11T07:52:35.478Z,20.87
2018-07-11T07:54:11.112Z,21.08
2018-07-11T07:55:46.707Z,20.63
2018-07-11T07:57:22.277Z,20.64
2018-07-11T07:58:58.136Z,20.60
2018-07-11T08:00:33.713Z,20.84
2018-07-11T08:02:09.488Z,21.05
2018-07-11T08:03:46.092Z,21.29
2018-07-11T08:05:22.133Z,21.50
2018-07-11T08:07:03.328Z,21.71
2018-07-11T08:08:39.056Z,21.60
2018-07-11T08:10:14.983Z,21.41
2018-07-11T08:11:54.989Z,21.39
2018-07-11T08:13:31.700Z,21.43
2018-07-11T08:15:08.212Z,21.44
2018-07-11T08:16:46.048Z,21.63
2018-07-11T08:18:22.766Z,21.83
2018-07-11T08:19:58.995Z,21.97
2018-07-11T08:21:34.764Z,22.22
2018-07-11T08:23:24.437Z,22.15
2018-07-11T08:25:11.560Z,22.37
2018-07-11T08:26:58.545Z,22.27
2018-07-11T08:30:52.274Z,22.07
2018-07-11T08:32:40.390Z,21.67
2018-07-11T08:34:45.525Z,21.85
2018-07-11T08:38:45.502Z,21.75
2018-07-11T08:41:34.657Z,21.02
2018-07-11T08:43:38.003Z,21.60
2018-07-11T08:49:31.448Z,22.07
2018-07-11T08:51:16.492Z,22.17
2018-07-11T08:53:06.413Z,22.03
2018-07-11T08:54:51.660Z,22.12
2018-07-11T08:56:45.441Z,22.39
2018-07-11T09:00:35.013Z,22.70
2018-07-11T09:04:23.873Z,22.69
2018-07-11T09:07:10.268Z,22.95
2018-07-11T09:17:32.975Z,23.44
2018-07-11T09:21:38.325Z,23.56
2018-07-11T09:23:31.017Z,23.27
2018-07-11T09:25:07.751Z,22.94
2018-07-11T09:26:43.709Z,22.65
2018-07-11T09:28:21.940Z,22.54
2018-07-11T09:31:44.867Z,22.57
2018-07-11T09:33:22.872Z,22.80
2018-07-11T09:35:04.598Z,22.91
2018-07-11T09:36:42.400Z,22.85
2018-07-11T09:38:20.539Z,23.18
2018-07-11T09:39:56.899Z,23.44
2018-07-11T09:41:34.134Z,22.95
2018-07-11T09:43:11.978Z,23.01
2018-07-11T09:44:48.949Z,23.08
2018-07-11T09:46:25.184Z,22.64
2018-07-11T09:48:06.932Z,22.12
2018-07-11T09:49:42.576Z,21.93
2018-07-11T09:51:18.568Z,21.55
2018-07-11T09:52:54.408Z,21.52
2018-07-11T09:54:30.064Z,21.80
2018-07-11T09:56:05.844Z,22.06
2018-07-11T09:57:42.800Z,22.28
2018-07-11T09:59:20.536Z,22.46
2018-07-11T10:01:01.734Z,22.62
2018-07-11T10:02:37.482Z,22.90
2018-07-11T10:04:14.452Z,23.03
2018-07-11T10:05:50.048Z,22.99
2018-07-11T10:07:28.654Z,23.02
2018-07-11T10:09:04.785Z,22.55
2018-07-11T10:10:40.428Z,22.51
2018-07-11T10:12:16.076Z,22.40
2018-07-11T10:13:51.824Z,22.25
2018-07-11T10:15:27.521Z,22.02
2018-07-11T10:17:03.079Z,22.49
2018-07-11T10:18:39.009Z,22.49
2018-07-11T10:20:14.633Z,22.55
2018-07-11T10:21:50.281Z,22.46
2018-07-11T10:23:25.906Z,22.69
2018-07-11T10:25:01.470Z,22.57
2018-07-11T10:26:37.043Z,22.77
2018-07-11T10:28:18.478Z,23.07
2018-07-11T10:29:54.120Z,23.09
2018-07-11T10:31:30.292Z,22.91
2018-07-11T10:33:05.909Z,22.94
2018-07-11T10:34:42.152Z,22.91
2018-07-11T10:36:19.680Z,23.01
2018-07-11T10:37:55.376Z,23.31
2018-07-11T10:39:31.380Z,23.47
2018-07-11T10:41:07.799Z,23.21
2018-07-11T10:42:43.928Z,23.07
2018-07-11T10:44:19.601Z,23.13
2018-07-11T10:45:55.430Z,23.30
2018-07-11T10:47:31.296Z,23.21
2018-07-11T10:49:07.809Z,23.32
2018-07-11T10:50:44.238Z,23.55
2018-07-11T10:52:20.402Z,23.36
2018-07-11T10:53:56.016Z,23.38
2018-07-11T10:55:31.960Z,23.41
2018-07-11T10:57:09.525Z,23.38
2018-07-11T10:58:45.857Z,23.49
2018-07-11T11:00:36.661Z,23.49
2018-07-11T11:02:01.524Z,23.62
2018-07-11T11:03:37.588Z,23.60
2018-07-11T11:05:13.696Z,23.90
2018-07-11T11:06:50.657Z,24.23
2018-07-11T11:08:28.074Z,24.36
2018-07-11T11:10:03.932Z,24.59
2018-07-11T11:11:40.094Z,24.50
2018-07-11T11:13:15.784Z,23.96
2018-07-11T11:14:51.479Z,23.81
2018-07-11T11:16:28.020Z,23.84
2018-07-11T11:18:03.630Z,23.93
2018-07-11T11:19:39.305Z,23.82
2018-07-11T11:21:14.881Z,23.95
2018-07-11T11:22:50.729Z,23.77
2018-07-11T11:24:26.742Z,23.30
2018-07-11T11:26:02.428Z,23.07
2018-07-11T11:27:38.274Z,22.23
2018-07-11T11:29:16.245Z,20.66
2018-07-11T11:30:55.171Z,20.27
2018-07-11T11:32:31.333Z,20.37
2018-07-11T11:34:06.971Z,19.72
2018-07-11T11:35:42.811Z,19.02
2018-07-11T11:37:18.361Z,18.62
2018-07-11T11:38:54.025Z,18.50
2018-07-11T11:40:29.864Z,18.34
2018-07-11T11:42:05.952Z,18.26
2018-07-11T11:43:41.399Z,18.20
2018-07-11T11:45:18.157Z,18.08
2018-07-11T11:46:58.332Z,18.14
2018-07-11T11:48:34.044Z,17.79
2018-07-11T11:50:10.429Z,17.71
2018-07-11T11:51:46.462Z,17.23
2018-07-11T11:53:22.105Z,16.88
2018-07-11T11:54:57.806Z,16.77
2018-07-11T11:56:33.435Z,16.55
2018-07-11T11:58:08.997Z,16.69
2018-07-11T11:59:44.609Z,16.87
2018-07-11T12:01:20.508Z,16.80
2018-07-11T12:02:56.351Z,16.78
2018-07-11T12:04:32.193Z,16.78
2018-07-11T12:06:07.939Z,16.83
2018-07-11T12:07:43.629Z,16.82
2018-07-11T12:09:19.295Z,17.00
2018-07-11T12:10:56.773Z,17.27
2018-07-11T12:12:33.571Z,17.37
2018-07-11T12:14:09.192Z,17.52
2018-07-11T12:15:45.072Z,17.55
2018-07-11T12:17:21.076Z,17.22
2018-07-11T12:18:57.556Z,17.12
2018-07-11T12:20:33.113Z,17.49
2018-07-11T12:22:08.680Z,17.74
2018-07-11T12:23:44.247Z,17.84
2018-07-11T12:25:19.901Z,18.01
2018-07-11T12:26:55.724Z,18.21
2018-07-11T12:28:31.457Z,18.18
2018-07-11T12:30:07.011Z,18.31
2018-07-11T12:31:42.822Z,18.24
2018-07-11T12:33:18.425Z,18.37
2018-07-11T12:34:54.070Z,18.43
2018-07-11T12:36:29.676Z,18.54
2018-07-11T12:38:05.713Z,18.32
2018-07-11T12:39:41.890Z,18.48
2018-07-11T12:41:19.268Z,18.66
2018-07-11T12:42:55.191Z,18.46
2018-07-11T12:44:30.961Z,18.49
2018-07-11T12:46:06.940Z,18.62
2018-07-11T12:47:48.057Z,18.51
2018-07-11T12:49:24.568Z,18.88
2018-07-11T12:51:00.316Z,19.35
2018-07-11T12:52:36.759Z,19.83
2018-07-11T12:54:12.384Z,19.97
2018-07-11T12:55:48.043Z,20.23
2018-07-11T12:57:25.533Z,20.49
2018-07-11T12:59:02.196Z,20.31
2018-07-11T13:00:38.176Z,20.67
2018-07-11T13:02:13.816Z,20.98
2018-07-11T13:03:49.512Z,21.10
2018-07-11T13:05:25.204Z,21.30
2018-07-11T13:07:01.398Z,21.38
2018-07-11T13:08:36.980Z,21.63
2018-07-11T13:10:12.580Z,21.52
2018-07-11T13:11:48.120Z,21.83
2018-07-11T13:13:24.001Z,22.06
2018-07-11T13:15:00.128Z,22.28
2018-07-11T13:16:35.775Z,22.14
2018-07-11T13:18:11.343Z,21.89
2018-07-11T13:19:47.252Z,21.88
2018-07-11T13:21:23.239Z,21.97
2018-07-11T13:22:59.941Z,22.30
2018-07-11T13:24:35.545Z,22.53
2018-07-11T13:26:12.189Z,22.69
2018-07-11T13:27:47.996Z,22.76
2018-07-11T13:29:23.575Z,22.60
2018-07-11T13:30:59.153Z,22.66
2018-07-11T13:32:35.287Z,22.27
2018-07-11T13:34:10.855Z,22.43
2018-07-11T13:35:47.637Z,22.08
2018-07-11T13:37:23.965Z,22.00
2018-07-11T13:39:00.595Z,21.96
2018-07-11T13:40:36.247Z,21.86
2018-07-11T13:42:11.845Z,21.70
2018-07-11T13:43:47.728Z,21.71
2018-07-11T13:45:23.569Z,21.68
2018-07-11T13:46:59.139Z,21.66
2018-07-11T13:48:35.915Z,21.55
2018-07-11T13:50:11.533Z,21.33
2018-07-11T13:51:47.254Z,21.03
2018-07-11T13:53:23.078Z,20.72
2018-07-11T13:54:58.762Z,20.55
2018-07-11T13:56:34.795Z,20.65
2018-07-11T13:58:10.562Z,20.76
2018-07-11T13:59:46.141Z,20.65
2018-07-11T14:01:21.679Z,20.65
2018-07-11T14:02:57.506Z,20.60
2018-07-11T14:04:34.230Z,20.55
2018-07-11T14:06:09.822Z,20.49
2018-07-11T14:07:45.438Z,20.65
2018-07-11T14:09:21.017Z,20.57
2018-07-11T14:10:56.577Z,20.52
2018-07-11T14:12:32.203Z,20.30
2018-07-11T14:14:07.851Z,20.50
2018-07-11T14:15:43.318Z,20.56
2018-07-11T14:17:18.887Z,20.55
2018-07-11T14:18:54.516Z,20.52
2018-07-11T14:20:30.238Z,20.47
2018-07-11T14:22:05.706Z,20.28
2018-07-11T14:23:42.413Z,20.38
2018-07-11T14:25:18.760Z,20.62
2018-07-11T14:26:54.557Z,20.52
2018-07-11T14:28:31.363Z,20.70
2018-07-11T14:30:06.973Z,20.81
2018-07-11T14:31:42.749Z,20.78
2018-07-11T14:33:18.532Z,20.74
2018-07-11T14:34:54.153Z,20.60
2018-07-11T14:36:29.731Z,20.54
2018-07-11T14:38:05.494Z,20.68
2018-07-11T14:39:41.092Z,20.79
2018-07-11T14:41:16.687Z,20.97
2018-07-11T14:42:52.250Z,21.10
2018-07-11T14:44:27.892Z,21.12
2018-07-11T14:46:03.448Z,21.23
2018-07-11T14:47:44.460Z,21.20
2018-07-11T14:49:21.245Z,21.13
2018-07-11T14:50:56.845Z,21.23
2018-07-11T14:52:32.457Z,21.25
2018-07-11T14:54:08.032Z,21.33
2018-07-11T14:55:43.805Z,21.36
2018-07-11T14:57:19.394Z,21.60
2018-07-11T14:58:57.053Z,21.77
2018-07-11T15:00:32.601Z,21.86
2018-07-11T15:02:08.144Z,22.04
2018-07-11T15:03:44.186Z,22.16
2018-07-11T15:05:20.513Z,22.10
2018-07-11T15:06:56.081Z,22.09
2018-07-11T15:08:31.697Z,22.32
2018-07-11T15:10:07.268Z,22.41
2018-07-11T15:11:42.824Z,22.24
2018-07-11T15:13:18.400Z,22.25
2018-07-11T15:14:54.214Z,22.40
2018-07-11T15:16:29.780Z,22.44
2018-07-11T15:18:05.853Z,22.54
2018-07-11T15:19:41.408Z,22.50
2018-07-11T15:21:17.069Z,22.42
2018-07-11T15:22:53.432Z,22.41
2018-07-11T15:24:28.960Z,22.36
2018-07-11T15:26:04.543Z,22.17
2018-07-11T15:27:40.124Z,22.04
2018-07-11T15:29:15.709Z,21.74
2018-07-11T15:30:51.301Z,21.86
2018-07-11T15:32:26.895Z,21.75
2018-07-11T15:34:02.712Z,21.94
2018-07-11T15:35:38.689Z,21.46
2018-07-11T15:37:14.345Z,21.50
2018-07-11T15:38:50.029Z,21.51
2018-07-11T15:40:25.660Z,21.59
2018-07-11T15:42:01.243Z,21.60
2018-07-11T15:43:36.897Z,21.51
2018-07-11T15:45:12.503Z,21.39
2018-07-11T15:46:48.026Z,21.58
2018-07-11T15:48:23.617Z,21.49
2018-07-11T15:50:01.295Z,21.35
2018-07-11T15:51:37.405Z,21.64
2018-07-11T15:53:12.982Z,21.71
2018-07-11T15:54:48.532Z,21.91
2018-07-11T15:56:24.323Z,22.06
2018-07-11T15:58:03.724Z,22.18
2018-07-11T15:59:45.885Z,22.10
2018-07-11T16:01:21.343Z,22.11
2018-07-11T16:02:57.363Z,22.14
2018-07-11T16:04:36.275Z,22.04
2018-07-11T16:08:36.088Z,21.96
2018-07-11T16:10:11.974Z,21.90
2018-07-11T16:11:47.920Z,22.16
2018-07-11T16:13:23.567Z,22.14
2018-07-11T16:14:59.287Z,22.12
2018-07-11T16:16:34.871Z,21.82
2018-07-11T16:18:10.917Z,21.62
2018-07-11T16:19:46.492Z,21.25
2018-07-11T16:21:22.077Z,21.19
2018-07-11T16:22:57.704Z,21.48
2018-07-11T16:24:34.385Z,21.57
2018-07-11T16:26:10.214Z,21.57
2018-07-11T16:27:45.748Z,21.73
2018-07-11T16:29:21.731Z,21.89
2018-07-11T16:30:57.358Z,21.91
2018-07-11T16:32:32.933Z,21.76
2018-07-11T16:34:08.558Z,21.60
2018-07-11T16:35:44.127Z,21.49
2018-07-11T16:37:19.824Z,21.59
2018-07-11T16:38:55.351Z,21.52
2018-07-11T16:40:31.937Z,21.70
2018-07-11T16:42:07.540Z,21.78
2018-07-11T16:43:43.096Z,21.72
2018-07-11T16:45:18.635Z,21.54
2018-07-11T16:46:54.250Z,21.45
2018-07-11T16:48:29.881Z,21.49
2018-07-11T16:50:05.605Z,21.49
2018-07-11T16:51:41.184Z,21.71
2018-07-11T16:53:16.838Z,21.96
2018-07-11T16:54:52.940Z,22.12
2018-07-11T16:56:30.128Z,22.10
2018-07-11T16:58:05.746Z,21.94
2018-07-11T16:59:47.281Z,21.80
2018-07-11T17:01:28.039Z,21.56
2018-07-11T17:03:08.661Z,21.35
2018-07-11T17:04:44.268Z,20.95
2018-07-11T17:06:19.834Z,20.69
2018-07-11T17:07:58.278Z,20.78
2018-07-11T17:09:36.597Z,20.53
2018-07-11T17:11:20.046Z,20.67
2018-07-11T17:13:01.790Z,20.78
2018-07-11T17:14:37.451Z,20.86
2018-07-11T17:16:13.008Z,20.80
2018-07-11T17:17:50.204Z,20.71
2018-07-11T17:19:37.459Z,20.70
2018-07-11T17:21:30.542Z,20.67
2018-07-11T18:06:05.463Z,20.80
2018-07-11T18:07:51.709Z,19.37
2018-07-11T18:09:28.268Z,19.45
2018-07-11T18:11:12.065Z,19.48
2018-07-11T18:13:04.900Z,19.53
2018-07-11T18:15:57.861Z,19.60
2018-07-11T18:17:45.329Z,19.51
2018-07-11T18:21:43.390Z,19.52
2018-07-11T18:23:23.357Z,19.31
2018-07-11T18:25:44.220Z,19.28
2018-07-11T18:28:33.964Z,19.23
2018-07-11T18:34:39.320Z,19.16
2018-07-11T18:36:26.120Z,19.01
2018-07-11T18:38:15.027Z,19.06
2018-07-11T18:39:58.328Z,19.10
2018-07-11T18:41:38.230Z,19.07
2018-07-11T18:43:27.957Z,19.12
2018-07-11T18:45:13.867Z,19.13
2018-07-11T18:47:25.707Z,19.18
2018-07-11T18:49:14.890Z,19.19
2018-07-11T18:50:58.382Z,19.21
2018-07-11T18:54:48.028Z,19.19
2018-07-11T18:56:32.344Z,18.93
2018-07-11T18:58:15.813Z,18.90
2018-07-11T19:00:03.305Z,18.83
2018-07-11T19:01:54.948Z,18.77
2018-07-11T19:03:37.967Z,18.78
2018-07-11T19:05:23.245Z,18.72
2018-07-11T19:07:09.127Z,18.61
2018-07-11T19:08:53.227Z,18.43
2018-07-11T19:10:43.784Z,18.31
2018-07-11T19:12:25.741Z,18.40
2018-07-11T19:14:05.262Z,18.30
2018-07-11T19:15:44.049Z,18.22
2018-07-11T19:17:28.050Z,18.10
2018-07-11T19:19:10.117Z,17.98
2018-07-11T19:20:56.905Z,17.90
2018-07-11T19:22:43.223Z,17.82
2018-07-11T19:24:19.662Z,17.78
2018-07-11T19:26:01.001Z,17.69
2018-07-11T19:27:47.829Z,17.60
2018-07-11T19:29:35.488Z,17.59
2018-07-11T19:31:21.828Z,17.53
2018-07-11T19:35:11.974Z,17.55
2018-07-11T19:36:59.295Z,17.62
2018-07-11T19:38:38.806Z,17.74
2018-07-11T19:40:29.065Z,17.80
2018-07-11T19:44:21.888Z,17.81
2018-07-11T19:46:08.851Z,17.76
2018-07-11T19:47:53.465Z,17.78
2018-07-11T19:50:41.741Z,17.74
2018-07-11T19:52:56.326Z,17.72
2018-07-11T19:54:41.981Z,17.70
2018-07-11T19:56:51.413Z,17.67
2018-07-11T19:58:27.423Z,17.59
2018-07-11T20:00:05.068Z,17.57
2018-07-11T20:01:41.000Z,17.54
2018-07-11T20:03:16.787Z,17.57
2018-07-11T20:04:53.037Z,17.54
2018-07-11T20:06:29.875Z,17.49
2018-07-11T20:08:05.749Z,17.46
2018-07-11T20:09:42.129Z,17.41
2018-07-11T20:11:19.293Z,17.28
2018-07-11T20:12:55.174Z,17.19
2018-07-11T20:14:32.235Z,17.10
2018-07-11T20:16:07.816Z,17.09
2018-07-11T20:17:43.467Z,16.96
2018-07-11T20:19:19.252Z,16.97
2018-07-11T20:20:57.041Z,16.94
2018-07-11T20:22:32.773Z,16.89
2018-07-11T20:24:08.335Z,16.83
2018-07-11T20:25:44.609Z,16.86
2018-07-11T20:27:21.975Z,16.84
2018-07-11T20:29:00.361Z,16.37
2018-07-11T20:30:35.988Z,16.75
2018-07-11T20:32:11.591Z,16.68
2018-07-11T20:33:47.409Z,16.71
2018-07-11T20:35:23.011Z,16.71
2018-07-11T20:36:58.548Z,16.70
2018-07-11T20:38:34.140Z,16.70
2018-07-11T20:40:09.738Z,16.66
2018-07-11T20:41:45.325Z,16.69
2018-07-11T20:43:20.921Z,16.70
2018-07-11T20:44:57.776Z,16.65
2018-07-11T20:46:33.893Z,16.58
2018-07-11T20:48:09.923Z,16.49
2018-07-11T20:49:45.510Z,16.45
2018-07-11T20:51:21.135Z,16.43
2018-07-11T20:52:57.275Z,16.41
2018-07-11T20:54:32.869Z,16.40
2018-07-11T20:56:08.443Z,16.42
2018-07-11T20:57:44.002Z,16.44
2018-07-11T20:59:30.861Z,16.45
2018-07-11T21:01:17.849Z,16.32
2018-07-11T21:05:11.094Z,16.22
2018-07-11T21:08:01.410Z,16.05
2018-07-11T21:09:48.220Z,15.99
2018-07-11T21:11:36.056Z,15.96
2018-07-11T21:13:27.761Z,15.98
2018-07-11T21:15:13.259Z,15.96
2018-07-11T21:17:30.784Z,15.95
2018-07-11T21:19:12.689Z,15.85
2018-07-11T21:20:48.245Z,15.81
2018-07-11T21:22:23.816Z,15.77
2018-07-11T21:23:59.600Z,15.85
2018-07-11T21:25:36.250Z,15.85
2018-07-11T21:27:11.836Z,15.84
2018-07-11T21:28:47.455Z,15.85
2018-07-11T21:30:23.158Z,15.91
2018-07-11T21:31:58.968Z,15.92
2018-07-11T21:33:34.509Z,16.00
2018-07-11T21:35:10.347Z,16.04
2018-07-11T21:36:45.900Z,16.00
2018-07-11T21:38:21.500Z,16.07
2018-07-11T21:39:57.336Z,16.08
2018-07-11T21:41:32.976Z,16.21
2018-07-11T21:43:08.532Z,16.19
2018-07-11T21:44:44.152Z,16.32
2018-07-11T21:46:19.855Z,16.35
2018-07-11T21:47:55.887Z,16.36
2018-07-11T21:49:31.442Z,16.39
2018-07-11T21:51:07.079Z,16.40
2018-07-11T21:52:42.636Z,16.39
2018-07-11T21:54:18.165Z,16.39
2018-07-11T21:55:53.728Z,16.34
2018-07-11T21:57:29.295Z,16.30
2018-07-11T21:59:04.829Z,16.26
2018-07-11T22:00:41.231Z,16.16
2018-07-11T22:02:16.853Z,16.08
2018-07-11T22:03:52.692Z,15.98
2018-07-11T22:05:29.438Z,15.93
2018-07-11T22:07:05.015Z,15.90
2018-07-11T22:08:40.627Z,15.78
2018-07-11T22:10:16.186Z,15.69
2018-07-11T22:11:51.725Z,15.68
2018-07-11T22:13:27.291Z,15.60
2018-07-11T22:15:02.997Z,15.49
2018-07-11T22:16:38.765Z,15.48
2018-07-11T22:18:25.454Z,15.47
2018-07-11T22:20:00.004Z,15.37
2018-07-11T22:21:34.584Z,15.40
2018-07-11T22:23:09.140Z,15.37
2018-07-11T22:24:43.904Z,15.38
2018-07-11T22:26:18.478Z,15.34
2018-07-11T22:27:53.032Z,15.31